Flight Track Log - Related Links

Times and Time Zones

All times are in EDT time to prevent confusion due to time zone crossing. See the UAL5669 flight status page for this flight to view local times or setup timezone preferences in your user account.

Time Position Orientation Groundspeed Altitude Reporting Facility
EDT Latitude Longitude Course Direction KTS MPH feet Rate Location/Type
Mon 06:09:20 AM 34.9611 -82.1608 360° North 221 254 4,500  Level Atlanta Center
Mon 06:10:20 AM 34.9831 -82.0969 67° East 238 274 6,500 2,050 Climbing Atlanta Center
Mon 06:11:00 AM 35.1159 -81.9167 North  Level FlightAware Approximate
Mon 06:11:20 AM 35.0069 -82.0203 69° East 238 274 8,600  Level Atlanta Center
Mon 06:12:00 AM 35.2091 -81.9333 North  Level FlightAware Approximate
Mon 06:12:20 AM 35.0472 -81.9406 58° Northeast 255 293 10,400  Level Atlanta Center
Mon 06:13:00 AM 35.3037 -81.9333 North  Level FlightAware Approximate
Mon 06:13:20 AM 35.1306 -81.9333 North 238 274 11,400  Level Atlanta Center
Mon 06:14:00 AM 35.3984 -81.9333 360° North  Level FlightAware Approximate
Mon 06:14:20 AM 35.2225 -81.9386 357° North 294 338 12,600  Level Atlanta Center
Mon 06:15:20 AM 35.3267 -81.9283 North 325 374 14,100 1,500 Climbing Atlanta Center
Mon 06:16:20 AM 35.3936 -81.8275 51° Northeast 351 404 15,600 1,500 Climbing Atlanta Center
Mon 06:17:20 AM 35.4333 -81.7092 68° East 353 406 17,100 1,350 Climbing Atlanta Center
Mon 06:18:20 AM 35.4769 -81.5881 66° East 372 428 18,300 1,350 Climbing Atlanta Center
Mon 06:19:20 AM 35.5203 -81.4692 66° East 380 437 19,800 1,500 Climbing Atlanta Center
Mon 06:20:20 AM 35.5617 -81.3506 67° East 380 437 21,300 1,450 Climbing Atlanta Center
Mon 06:21:20 AM 35.6006 -81.2317 68° East 387 445 22,700 1,450 Climbing Atlanta Center
Mon 06:22:20 AM 35.6478 -81.1075 65° Northeast 406 467 24,200 1,500 Climbing Atlanta Center
Mon 06:23:20 AM 35.6947 -80.9781 66° East 396 456 25,700 1,400 Climbing Atlanta Center
Mon 06:24:20 AM 35.7375 -80.8561 67° East 391 450 27,000 1,150 Climbing Atlanta Center
Mon 06:25:20 AM 35.7842 -80.7289 66° East 385 443 28,000 995 Climbing Atlanta Center
Mon 06:27:33 AM 35.8822 -80.4450 67° East 412 474 30,200 995 Climbing Washington Center
Mon 06:28:33 AM 35.9272 -80.3119 67° East 412 474 31,200 1,068 Climbing Washington Center
Mon 06:29:31 AM 35.9744 -80.1736 67° East 424 488 32,300 1,008 Climbing Washington Center
Mon 06:30:32 AM 36.0253 -80.0428 64° Northeast 429 494 33,200 934 Climbing Washington Center
Mon 06:31:33 AM 36.0822 -79.9125 62° Northeast 429 494 34,200 908 Climbing Washington Center
Mon 06:32:31 AM 36.1533 -79.7903 54° Northeast 429 494 35,000 403 Climbing Washington Center
Mon 06:33:32 AM 36.2244 -79.6628 55° Northeast 448 516 35,000  Level Washington Center
Mon 06:34:33 AM 36.2911 -79.5450 55° Northeast 455 524 35,000  Level Washington Center
Mon 06:35:33 AM 36.3686 -79.4097 55° Northeast 449 517 35,000 454 Level Washington Center
Mon 06:36:32 AM 36.4286 -79.2939 57° Northeast 443 510 35,900 950 Climbing Washington Center
Mon 06:37:33 AM 36.4969 -79.1706 55° Northeast 433 498 36,900 555 Climbing Washington Center
Mon 06:38:31 AM 36.5736 -79.0422 53° Northeast 428 493 37,000 50 Climbing Washington Center
Mon 06:39:32 AM 36.6442 -78.9158 55° Northeast 428 493 37,000  Level Washington Center
Mon 06:40:31 AM 36.7103 -78.7864 57° Northeast 439 505 37,000  Level Washington Center
Mon 06:41:31 AM 36.7825 -78.6597 55° Northeast 439 505 37,000  Level Washington Center
Mon 06:42:31 AM 36.8622 -78.5539 47° Northeast 433 498 37,000  Level Washington Center
Mon 06:43:33 AM 36.9436 -78.4686 40° Northeast 421 484 37,000  Level Washington Center
Mon 06:44:30 AM 37.0336 -78.3706 41° Northeast 421 484 37,000  Level Washington Center
Mon 06:45:33 AM 37.1233 -78.2747 40° Northeast 421 484 37,000  Level Washington Center
Mon 06:46:31 AM 37.2153 -78.1764 40° Northeast 421 484 37,000  Level Washington Center
Mon 06:47:32 AM 37.3028 -78.0800 41° Northeast 421 484 37,000  Level Washington Center
Mon 06:48:33 AM 37.3903 -77.9811 42° Northeast 421 484 37,000  Level Washington Center
Mon 06:49:34 AM 37.4756 -77.8869 41° Northeast 421 484 37,000  Level Washington Center
Mon 06:50:31 AM 37.5669 -77.7953 38° Northeast 421 484 37,000  Level Washington Center
Mon 06:51:32 AM 37.6603 -77.7089 36° Northeast 416 479 37,000  Level Washington Center
Mon 06:52:33 AM 37.7536 -77.6272 35° Northeast 416 479 37,000  Level Washington Center
Mon 06:53:31 AM 37.8444 -77.5431 36° Northeast 416 479 37,000  Level Washington Center
Mon 06:54:31 AM 37.9378 -77.4586 36° Northeast 416 479 37,000  Level Washington Center
Mon 06:55:33 AM 38.0308 -77.3711 37° Northeast 416 479 37,000  Level Washington Center
Mon 06:56:31 AM 38.1194 -77.2914 35° Northeast 405 466 37,000  Level Washington Center
Mon 06:57:31 AM 38.2103 -77.2064 36° Northeast 405 466 37,000  Level Washington Center
Mon 06:58:32 AM 38.3011 -77.1236 36° Northeast 405 466 37,000  Level Washington Center
Mon 06:59:30 AM 38.3897 -77.0406 36° Northeast 400 460 37,000  Level Washington Center
Mon 07:00:32 AM 38.4803 -76.9550 36° Northeast 400 460 37,000 -49 Level Washington Center
Mon 07:01:32 AM 38.5731 -76.8664 37° Northeast 400 460 36,900 -893 Descending Washington Center
Mon 07:02:33 AM 38.6656 -76.7828 35° Northeast 400 460 35,200 -1,686 Descending Washington Center
Mon 07:03:33 AM 38.7519 -76.6883 40° Northeast 405 466 33,500 -1,765 Descending Washington Center
Mon 07:04:32 AM 38.8403 -76.5911 41° Northeast 411 473 31,700 -1,800 Descending Washington Center
Mon 07:05:33 AM 38.9308 -76.4856 42° Northeast 417 480 29,900 -1,815 Descending Washington Center
Mon 07:06:31 AM 39.0169 -76.3825 43° Northeast 417 480 28,100 -1,450 Descending Washington Center
Mon 07:07:33 AM 39.1053 -76.2789 42° Northeast 422 486 27,000 -550 Descending Washington Center
Mon 07:08:31 AM 39.1975 -76.1728 42° Northeast 427 491 27,000  Level Washington Center
Mon 07:09:33 AM 39.2939 -76.0636 41° Northeast 440 506 27,000 -350 Level Washington Center
Mon 07:10:31 AM 39.3881 -75.9542 42° Northeast 440 506 26,300 -1,050 Descending Washington Center
Mon 07:11:33 AM 39.4778 -75.8497 42° Northeast 440 506 24,900 -1,400 Descending Washington Center
Mon 07:12:31 AM 39.5656 -75.7450 43° Northeast 435 501 23,500 -1,385 Descending Washington Center
Mon 07:13:30 AM 39.6553 -75.6372 43° Northeast 435 501 22,200 -1,361 Descending Washington Center
Mon 07:14:30 AM 39.7406 -75.5347 43° Northeast 425 489 20,800 -1,587 Descending Washington Center
Mon 07:15:31 AM 39.8239 -75.4375 42° Northeast 415 478 19,000 -1,902 Descending Washington Center
Mon 07:16:33 AM 39.9050 -75.3372 43° Northeast 404 465 16,900 -2,350 Descending Washington Center
Mon 07:17:31 AM 39.9922 -75.2314 43° Northeast 392 451 14,300 -2,240 Descending Washington Center
Mon 07:19:03 AM 40.1000 -75.1000 43° Northeast 332 382 11,300 -1,500 Descending New York TRACON
Mon 07:20:03 AM 40.1667 -75.0167 44° Northeast 264 304 10,500 -1,368 Descending New York TRACON
Mon 07:20:57 AM 40.2000 -74.9667 49° Northeast 272 313 8,700 -1,389 Descending New York TRACON
Mon 07:21:51 AM 40.2500 -74.9000 45° Northeast 273 314 8,000 -350 Descending New York TRACON
Mon 07:22:57 AM 40.3167 -74.8167 44° Northeast 283 326 8,000 -238 Level New York TRACON
Mon 07:23:57 AM 40.3667 -74.7500 45° Northeast 279 321 7,500 -737 Descending New York TRACON
Mon 07:24:51 AM 40.4167 -74.6833 45° Northeast 277 319 6,600 -789 Descending New York TRACON
Mon 07:25:51 AM 40.4833 -74.6500 21° North 264 304 6,000 -316 Descending New York TRACON
Mon 07:26:45 AM 40.5500 -74.6333 11° North 259 298 6,000  Level New York TRACON
Mon 07:27:45 AM 40.6167 -74.6167 11° North 258 297 6,000  Level New York TRACON
Mon 07:28:39 AM 40.6833 -74.5833 21° North 262 302 6,000 -368 Level New York TRACON
Mon 07:29:39 AM 40.7500 -74.5333 30° Northeast 272 313 5,300 -500 Descending New York TRACON
Mon 07:30:39 AM 40.8000 -74.4833 37° Northeast 264 304 5,000 -158 Descending New York TRACON
Mon 07:31:33 AM 40.8667 -74.4500 21° North 271 312 5,000 -333 Level New York TRACON
Mon 07:32:27 AM 40.9000 -74.3667 62° Northeast 273 314 4,400 -842 Descending New York TRACON
Mon 07:33:27 AM 40.9167 -74.2833 75° East 263 303 3,400 -700 Descending New York TRACON
Mon 07:34:27 AM 40.9500 -74.1833 66° East 269 310 3,000 -200 Descending New York TRACON
Mon 07:35:27 AM 40.9167 -74.1000 118° Southeast 268 308 3,000  Level New York TRACON
Mon 07:36:27 AM 40.8667 -74.0500 143° Southeast 258 297 3,000  Level New York TRACON

Login

Don't have an account? Register now (free) for customized features, flight alerts, and more!